Time;durP1;ratioP1;P1;durP2;ratioP2;P2;SDS_P1;SDS_P2;PMS_P1;PMS_P2;Temp;Humidity;BMP_temperature;BMP_pressure;BME280_temperature;BME280_humidity;BME280_pressure;Samples;Min_cycle;Max_cycle;Signal;HPM_P1;HPM_P2
2022/08/05 00:01:26;;;;;;;82.60;77.18;;;;;;;;;;6156924;23;20073;-78
2022/08/05 00:03:52;;;;;;;83.90;78.60;;;;;;;;;;6156041;23;20009;-78
2022/08/05 00:06:18;;;;;;;97.90;91.50;;;;;;;;;;6156895;23;20013;-78
2022/08/05 00:08:44;;;;;;;95.13;89.07;;;;;;;;;;6156838;23;20110;-78
2022/08/05 00:11:12;;;;;;;94.78;88.70;;;;;;;;;;6157676;23;20005;-78
2022/08/05 00:13:39;;;;;;;85.35;80.10;;;;;;;;;;6157696;23;20410;-78
2022/08/05 00:16:06;;;;;;;94.80;88.78;;;;;;;;;;6156181;23;19994;-78
2022/08/05 00:18:32;;;;;;;91.07;85.30;;;;;;;;;;6157013;23;20453;-78
2022/08/05 00:20:58;;;;;;;88.55;82.90;;;;;;;;;;6157776;23;20005;-78
2022/08/05 00:23:24;;;;;;;87.20;81.65;;;;;;;;;;6157778;23;20005;-78
2022/08/05 00:25:50;;;;;;;87.40;81.72;;;;;;;;;;6156748;23;20001;-78
2022/08/05 00:28:16;;;;;;;92.63;86.68;;;;;;;;;;6156703;23;20012;-78
2022/08/05 00:30:42;;;;;;;96.28;90.05;;;;;;;;;;6157149;23;20057;-78
2022/08/05 00:33:08;;;;;;;95.65;89.63;;;;;;;;;;6157096;23;20002;-78
2022/08/05 00:35:35;;;;;;;96.72;90.55;;;;;;;;;;6157589;23;19997;-78
2022/08/05 00:38:01;;;;;;;94.63;88.50;;;;;;;;;;6156974;23;19997;-78
2022/08/05 00:40:28;;;;;;;101.22;94.78;;;;;;;;;;6155819;23;20334;-78
2022/08/05 00:42:54;;;;;;;96.88;90.78;;;;;;;;;;6157873;23;20001;-79
2022/08/05 00:45:20;;;;;;;98.18;91.78;;;;;;;;;;6156471;23;20041;-79
2022/08/05 00:47:46;;;;;;;98.70;92.38;;;;;;;;;;6158563;23;20018;-78
2022/08/05 00:50:12;;;;;;;96.78;90.63;;;;;;;;;;6158339;23;20032;-78
2022/08/05 00:52:38;;;;;;;93.50;87.55;;;;;;;;;;6157995;23;20438;-78
2022/08/05 00:55:04;;;;;;;94.35;88.20;;;;;;;;;;6157759;23;20004;-78
2022/08/05 00:57:30;;;;;;;90.45;84.35;;;;;;;;;;6156701;23;20441;-78
2022/08/05 00:59:56;;;;;;;98.63;92.25;;;;;;;;;;6156611;23;20476;-78
2022/08/05 01:02:22;;;;;;;95.57;89.60;;;;;;;;;;6156843;23;20001;-78
2022/08/05 01:04:48;;;;;;;97.15;90.90;;;;;;;;;;6156708;23;20052;-78
2022/08/05 01:07:14;;;;;;;97.07;90.93;;;;;;;;;;6157050;23;20040;-78
2022/08/05 01:09:41;;;;;;;95.90;89.95;;;;;;;;;;6157198;23;20418;-78
2022/08/05 01:12:10;;;;;;;99.47;93.13;;;;;;;;;;6157499;23;20028;-78
2022/08/05 01:14:40;;;;;;;100.45;94.15;;;;;;;;;;6156624;23;20005;-78
2022/08/05 01:17:07;;;;;;;101.80;95.35;;;;;;;;;;6156404;23;20045;-78
2022/08/05 01:19:51;;;;;;;99.68;93.50;;;;;;;;;;6157773;23;20052;-78
2022/08/05 01:22:37;;;;;;;104.38;97.82;;;;;;;;;;6181290;23;20056;-78
2022/08/05 01:25:21;;;;;;;108.63;101.72;;;;;;;;;;6157043;23;20422;-78
2022/08/05 01:28:12;;;;;;;109.50;102.50;;;;;;;;;;6158478;23;20089;-78
2022/08/05 01:30:41;;;;;;;110.63;103.65;;;;;;;;;;6157554;23;20009;-78
2022/08/05 01:33:08;;;;;;;106.75;100.00;;;;;;;;;;6157355;23;20005;-78
2022/08/05 01:35:38;;;;;;;104.30;97.63;;;;;;;;;;6157110;23;20449;-78
2022/08/05 01:38:05;;;;;;;105.10;98.40;;;;;;;;;;6156997;23;20008;-78
2022/08/05 01:40:32;;;;;;;102.55;96.15;;;;;;;;;;6157423;23;20406;-78
2022/08/05 01:43:00;;;;;;;102.03;95.63;;;;;;;;;;6157278;23;20331;-78
2022/08/05 01:45:46;;;;;;;105.78;99.18;;;;;;;;;;6157538;23;20012;-78
2022/08/05 01:48:13;;;;;;;110.40;103.50;;;;;;;;;;6157335;23;20014;-78
2022/08/05 01:50:40;;;;;;;105.82;99.03;;;;;;;;;;6155900;23;20028;-78
2022/08/05 01:53:09;;;;;;;110.20;103.03;;;;;;;;;;6156480;23;20001;-78
2022/08/05 01:55:36;;;;;;;111.30;103.95;;;;;;;;;;6157039;23;20056;-78
2022/08/05 01:58:04;;;;;;;109.07;102.17;;;;;;;;;;6157046;23;19998;-78
2022/08/05 02:00:31;;;;;;;104.93;98.30;;;;;;;;;;6156505;23;20465;-78
2022/08/05 02:03:15;;;;;;;110.93;103.88;;;;;;;;;;6156029;23;20226;-78
2022/08/05 02:05:42;;;;;;;112.97;105.80;;;;;;;;;;6155014;23;20051;-78
2022/08/05 02:08:08;;;;;;;111.35;104.32;;;;;;;;;;6156348;23;20005;-78
2022/08/05 02:10:48;;;;;;;109.20;102.32;;;;;;;;;;6156695;23;20048;-78
2022/08/05 02:13:23;;;;;;;113.60;106.30;;;;;;;;;;6153984;23;20020;-78
2022/08/05 02:16:10;;;;;;;109.43;102.53;;;;;;;;;;6156371;23;20009;-78
2022/08/05 02:18:40;;;;;;;109.30;102.25;;;;;;;;;;6156506;23;20010;-78
2022/08/05 02:21:10;;;;;;;113.82;106.75;;;;;;;;;;6156050;23;19998;-78
2022/08/05 02:23:38;;;;;;;108.10;101.25;;;;;;;;;;6154502;23;20020;-78
2022/08/05 02:26:05;;;;;;;109.80;102.95;;;;;;;;;;6154997;23;20002;-78
2022/08/05 02:28:34;;;;;;;115.30;108.05;;;;;;;;;;6156102;23;20352;-78
2022/08/05 02:31:02;;;;;;;110.18;103.20;;;;;;;;;;6154775;23;20012;-78
2022/08/05 02:33:29;;;;;;;107.78;100.82;;;;;;;;;;6156313;23;20002;-78
2022/08/05 02:35:57;;;;;;;113.97;106.63;;;;;;;;;;6156016;23;20319;-78
2022/08/05 02:38:23;;;;;;;114.72;107.35;;;;;;;;;;6156064;23;20373;-78
2022/08/05 02:40:49;;;;;;;116.50;109.07;;;;;;;;;;6155217;23;20032;-78
2022/08/05 02:43:17;;;;;;;110.32;103.40;;;;;;;;;;6156552;23;20006;-78
2022/08/05 02:45:44;;;;;;;113.20;106.03;;;;;;;;;;6156348;23;20006;-78
2022/08/05 02:48:10;;;;;;;110.13;103.22;;;;;;;;;;6154645;23;20083;-78
2022/08/05 02:50:36;;;;;;;111.93;104.78;;;;;;;;;;6156432;23;20001;-78
2022/08/05 02:53:02;;;;;;;110.13;103.13;;;;;;;;;;6155740;23;20005;-78
2022/08/05 02:55:29;;;;;;;102.38;95.90;;;;;;;;;;6156058;23;19997;-78
2022/08/05 02:57:56;;;;;;;110.53;103.45;;;;;;;;;;6156714;23;20005;-78
2022/08/05 03:00:22;;;;;;;113.70;106.55;;;;;;;;;;6156219;23;20024;-78
2022/08/05 03:02:48;;;;;;;110.43;103.47;;;;;;;;;;6154967;23;20585;-78
2022/08/05 03:05:15;;;;;;;108.15;101.20;;;;;;;;;;6156540;23;20044;-78
2022/08/05 03:07:42;;;;;;;113.85;106.75;;;;;;;;;;6156740;23;20025;-78
2022/08/05 03:10:08;;;;;;;114.10;106.80;;;;;;;;;;6156559;23;20005;-78
2022/08/05 03:12:38;;;;;;;107.60;100.90;;;;;;;;;;6156126;23;20024;-78
2022/08/05 03:15:05;;;;;;;115.30;108.03;;;;;;;;;;6156315;23;20044;-78
2022/08/05 03:17:31;;;;;;;114.78;107.25;;;;;;;;;;6156733;23;20032;-78
2022/08/05 03:19:57;;;;;;;115.85;108.50;;;;;;;;;;6156533;23;20419;-78
2022/08/05 03:22:24;;;;;;;112.70;105.57;;;;;;;;;;6156067;23;20025;-78
2022/08/05 03:24:51;;;;;;;114.07;106.97;;;;;;;;;;6155910;23;20300;-78
2022/08/05 03:27:18;;;;;;;112.68;105.57;;;;;;;;;;6156567;23;20092;-78
2022/08/05 03:29:44;;;;;;;113.90;106.72;;;;;;;;;;6156321;23;20005;-78
2022/08/05 03:32:11;;;;;;;118.07;110.75;;;;;;;;;;6158648;23;20002;-78
2022/08/05 03:34:37;;;;;;;119.90;112.25;;;;;;;;;;6158663;23;20001;-78
2022/08/05 03:37:04;;;;;;;118.00;110.63;;;;;;;;;;6156915;23;20072;-78
2022/08/05 03:39:30;;;;;;;116.00;108.55;;;;;;;;;;6158320;23;20008;-78
2022/08/05 03:42:07;;;;;;;119.97;112.38;;;;;;;;;;6159049;23;20077;-78
2022/08/05 03:44:33;;;;;;;117.57;110.20;;;;;;;;;;6157460;23;20006;-78
2022/08/05 03:46:59;;;;;;;115.82;108.50;;;;;;;;;;6157388;23;20025;-78
2022/08/05 03:49:25;;;;;;;114.68;107.38;;;;;;;;;;6159872;23;20445;-78
2022/08/05 03:52:02;;;;;;;112.93;105.88;;;;;;;;;;6157827;23;20009;-78
2022/08/05 03:54:48;;;;;;;121.82;114.13;;;;;;;;;;6159031;23;19993;-78
2022/08/05 03:57:18;;;;;;;126.82;118.78;;;;;;;;;;6159342;23;20048;-78
2022/08/05 03:59:46;;;;;;;123.63;115.68;;;;;;;;;;6159975;23;20006;-78
2022/08/05 04:02:13;;;;;;;119.28;111.80;;;;;;;;;;6159694;23;20037;-78
2022/08/05 04:04:40;;;;;;;120.32;112.60;;;;;;;;;;6158688;23;20229;-78
2022/08/05 04:07:07;;;;;;;122.90;115.17;;;;;;;;;;6158065;23;20040;-78
2022/08/05 04:09:34;;;;;;;125.68;117.65;;;;;;;;;;6158006;23;20233;-78
2022/08/05 04:12:00;;;;;;;125.25;117.38;;;;;;;;;;6158100;23;20012;-78
2022/08/05 04:14:26;;;;;;;122.82;115.03;;;;;;;;;;6159077;23;20061;-78
2022/08/05 04:16:53;;;;;;;120.65;112.90;;;;;;;;;;6135862;23;20108;-78
2022/08/05 04:19:19;;;;;;;117.05;109.55;;;;;;;;;;6121421;23;20017;-78
2022/08/05 04:21:45;;;;;;;115.05;107.75;;;;;;;;;;6124187;23;20017;-78
2022/08/05 04:24:14;;;;;;;117.95;110.45;;;;;;;;;;6102054;23;20394;-78
2022/08/05 04:26:40;;;;;;;126.68;118.75;;;;;;;;;;6129185;23;20002;-78
2022/08/05 04:29:06;;;;;;;124.53;116.68;;;;;;;;;;6094960;23;20009;-78
2022/08/05 04:31:32;;;;;;;123.32;115.43;;;;;;;;;;6128312;23;20009;-78
2022/08/05 04:33:58;;;;;;;123.82;115.95;;;;;;;;;;6128675;23;20010;-78
2022/08/05 04:36:24;;;;;;;123.22;115.38;;;;;;;;;;6100448;23;20013;-78
2022/08/05 04:38:51;;;;;;;120.47;112.43;;;;;;;;;;6106915;23;20025;-78
2022/08/05 04:41:17;;;;;;;120.93;113.30;;;;;;;;;;6126338;23;20010;-78
2022/08/05 04:43:43;;;;;;;125.57;117.57;;;;;;;;;;6099700;23;20080;-78
2022/08/05 04:46:09;;;;;;;121.38;113.53;;;;;;;;;;6127273;23;20002;-78
2022/08/05 04:48:35;;;;;;;121.15;113.40;;;;;;;;;;6099196;23;20093;-78
2022/08/05 04:51:01;;;;;;;118.38;110.70;;;;;;;;;;6126045;23;20431;-78
2022/08/05 04:53:27;;;;;;;119.60;112.15;;;;;;;;;;6100348;23;20008;-78
2022/08/05 04:55:53;;;;;;;120.88;113.18;;;;;;;;;;6126638;23;20474;-78
2022/08/05 04:58:21;;;;;;;121.35;113.55;;;;;;;;;;6129374;23;20010;-78
2022/08/05 05:00:47;;;;;;;118.73;111.13;;;;;;;;;;6103677;23;20331;-78
2022/08/05 05:03:16;;;;;;;127.72;119.72;;;;;;;;;;6129576;23;20030;-78
2022/08/05 05:05:42;;;;;;;123.65;115.95;;;;;;;;;;6129785;23;20328;-78
2022/08/05 05:08:09;;;;;;;123.28;115.55;;;;;;;;;;6130032;23;20006;-77
2022/08/05 05:10:40;;;;;;;125.25;117.40;;;;;;;;;;6128393;23;20434;-77
2022/08/05 05:13:07;;;;;;;121.88;114.22;;;;;;;;;;6129146;23;20002;-78
2022/08/05 05:15:33;;;;;;;126.28;118.07;;;;;;;;;;6129549;23;19998;-77
2022/08/05 05:18:00;;;;;;;130.55;122.30;;;;;;;;;;6142503;23;20008;-77
2022/08/05 05:20:25;;;;;;;128.38;120.32;;;;;;;;;;6157305;23;20009;-77
2022/08/05 05:22:51;;;;;;;129.50;121.18;;;;;;;;;;6157433;23;20028;-76
2022/08/05 05:25:17;;;;;;;128.52;120.47;;;;;;;;;;6159049;23;20006;-76
2022/08/05 05:27:43;;;;;;;129.60;121.32;;;;;;;;;;6157520;23;20033;-76
2022/08/05 05:30:10;;;;;;;129.23;121.03;;;;;;;;;;6157876;23;19998;-76
2022/08/05 05:32:36;;;;;;;129.82;121.63;;;;;;;;;;6159051;23;20009;-76
2022/08/05 05:35:02;;;;;;;126.07;117.85;;;;;;;;;;6159881;23;20426;-77
2022/08/05 05:37:28;;;;;;;126.55;118.60;;;;;;;;;;6158775;23;20002;-76
2022/08/05 05:39:54;;;;;;;122.38;114.65;;;;;;;;;;6158490;23;20005;-77
2022/08/05 05:42:20;;;;;;;129.88;121.57;;;;;;;;;;6160112;23;20062;-77
2022/08/05 05:44:46;;;;;;;127.55;119.32;;;;;;;;;;6161261;23;20041;-76
2022/08/05 05:47:12;;;;;;;129.82;121.57;;;;;;;;;;6158843;23;20002;-76
2022/08/05 05:49:38;;;;;;;127.43;119.15;;;;;;;;;;6157860;23;20388;-76
2022/08/05 05:52:04;;;;;;;126.90;118.63;;;;;;;;;;6158979;23;20029;-76
2022/08/05 05:54:31;;;;;;;130.77;122.53;;;;;;;;;;6158189;23;20430;-76
2022/08/05 05:56:57;;;;;;;130.75;122.47;;;;;;;;;;6159353;23;20418;-76
2022/08/05 05:59:23;;;;;;;134.68;125.05;;;;;;;;;;6157250;23;20005;-79
2022/08/05 06:01:49;;;;;;;122.68;114.70;;;;;;;;;;6158041;23;20430;-74
2022/08/05 06:04:15;;;;;;;128.32;119.85;;;;;;;;;;6156387;23;20001;-74
2022/08/05 06:06:42;;;;;;;142.70;133.43;;;;;;;;;;6155307;23;20008;-73
2022/08/05 06:09:08;;;;;;;148.07;138.40;;;;;;;;;;6155936;23;20028;-75
2022/08/05 06:11:34;;;;;;;146.98;137.32;;;;;;;;;;6155043;23;19998;-75
2022/08/05 06:14:00;;;;;;;143.80;134.60;;;;;;;;;;6155800;23;20005;-75
2022/08/05 06:16:26;;;;;;;145.70;136.07;;;;;;;;;;6155939;23;20076;-75
2022/08/05 06:18:52;;;;;;;147.52;137.98;;;;;;;;;;6131113;23;20444;-75
2022/08/05 06:21:18;;;;;;;145.63;136.30;;;;;;;;;;6105607;23;20020;-72
2022/08/05 06:23:44;;;;;;;141.32;132.30;;;;;;;;;;6126750;23;20018;-73
2022/08/05 06:26:11;;;;;;;137.00;128.10;;;;;;;;;;6126219;23;20013;-73
2022/08/05 06:28:37;;;;;;;133.73;125.13;;;;;;;;;;6127363;23;20069;-77
2022/08/05 06:31:03;;;;;;;139.70;130.63;;;;;;;;;;6127169;23;20338;-76
2022/08/05 06:33:29;;;;;;;136.90;127.97;;;;;;;;;;6126212;23;20026;-74
2022/08/05 06:35:55;;;;;;;130.80;122.47;;;;;;;;;;6125754;23;20156;-74
2022/08/05 06:38:21;;;;;;;129.50;121.20;;;;;;;;;;6100528;23;20017;-75
2022/08/05 06:40:47;;;;;;;125.25;117.18;;;;;;;;;;6126526;23;20002;-74
2022/08/05 06:43:13;;;;;;;129.98;121.72;;;;;;;;;;6129055;23;20017;-75
2022/08/05 06:45:39;;;;;;;131.20;122.45;;;;;;;;;;6127247;23;20001;-73
2022/08/05 06:48:05;;;;;;;129.05;120.80;;;;;;;;;;6127008;23;20442;-74
2022/08/05 06:50:31;;;;;;;126.93;118.68;;;;;;;;;;6126072;23;19998;-78
2022/08/05 06:52:57;;;;;;;128.05;119.45;;;;;;;;;;6129613;23;20006;-74
2022/08/05 06:55:23;;;;;;;129.35;120.90;;;;;;;;;;6127771;23;20049;-77
2022/08/05 06:57:49;;;;;;;107.38;100.18;;;;;;;;;;6128387;23;20029;-73
2022/08/05 07:00:17;;;;;;;130.65;121.72;;;;;;;;;;6128850;23;20002;-73
2022/08/05 07:02:43;;;;;;;126.28;117.63;;;;;;;;;;6124583;23;20010;-74
2022/08/05 07:05:10;;;;;;;139.18;130.05;;;;;;;;;;6126042;23;20009;-73
2022/08/05 07:07:36;;;;;;;143.02;133.70;;;;;;;;;;6125683;23;20021;-73
2022/08/05 07:10:02;;;;;;;137.63;128.65;;;;;;;;;;6125167;23;20002;-73
2022/08/05 07:17:58;;;;;;;140.98;131.43;;;;;;;;;;6138744;23;20020;-72
2022/08/05 07:20:24;;;;;;;135.70;126.63;;;;;;;;;;6153615;23;20084;-73
2022/08/05 07:22:50;;;;;;;139.13;129.82;;;;;;;;;;6136599;23;20060;-77
2022/08/05 07:25:16;;;;;;;131.82;123.28;;;;;;;;;;6136156;23;20001;-72
2022/08/05 07:27:42;;;;;;;129.93;121.32;;;;;;;;;;6147349;23;20074;-72
2022/08/05 07:30:08;;;;;;;127.93;119.43;;;;;;;;;;6148810;23;20086;-72
2022/08/05 07:32:35;;;;;;;128.55;120.25;;;;;;;;;;6141062;23;20001;-73
2022/08/05 07:35:01;;;;;;;126.30;117.93;;;;;;;;;;6147590;23;20047;-73
2022/08/05 07:37:27;;;;;;;130.23;121.97;;;;;;;;;;6149029;23;20033;-73
2022/08/05 07:39:53;;;;;;;125.00;116.65;;;;;;;;;;6149733;23;20025;-72
2022/08/05 07:42:19;;;;;;;127.65;119.43;;;;;;;;;;6150511;23;20422;-74
2022/08/05 07:44:47;;;;;;;123.38;115.18;;;;;;;;;;6150297;23;20017;-73
2022/08/05 07:47:13;;;;;;;122.10;113.95;;;;;;;;;;6149478;23;20037;-73
2022/08/05 07:49:39;;;;;;;123.30;115.07;;;;;;;;;;6150151;23;20025;-72
2022/08/05 07:52:05;;;;;;;119.70;112.07;;;;;;;;;;6149741;23;20136;-73
2022/08/05 07:54:31;;;;;;;118.80;111.20;;;;;;;;;;6149326;23;20002;-72
2022/08/05 07:56:57;;;;;;;119.60;111.13;;;;;;;;;;6150982;23;20080;-72
2022/08/05 07:59:23;;;;;;;119.55;112.00;;;;;;;;;;6149360;23;20005;-73
2022/08/05 08:01:49;;;;;;;116.05;108.35;;;;;;;;;;6149235;23;20080;-72
2022/08/05 08:04:15;;;;;;;118.07;110.63;;;;;;;;;;6150389;23;20005;-74
2022/08/05 08:06:41;;;;;;;116.82;109.30;;;;;;;;;;6149150;23;20457;-73
2022/08/05 08:09:07;;;;;;;117.28;109.80;;;;;;;;;;6149056;23;20006;-72
2022/08/05 08:11:33;;;;;;;116.35;108.93;;;;;;;;;;6150729;23;20264;-72
2022/08/05 08:13:59;;;;;;;113.47;106.20;;;;;;;;;;6149743;23;20423;-74
2022/08/05 08:16:25;;;;;;;114.35;106.78;;;;;;;;;;6150951;23;20110;-72
2022/08/05 08:18:51;;;;;;;113.15;106.00;;;;;;;;;;6152071;23;20044;-72
2022/08/05 08:21:17;;;;;;;110.55;103.50;;;;;;;;;;6150966;23;20069;-73
2022/08/05 08:23:43;;;;;;;108.10;101.20;;;;;;;;;;6149921;23;20178;-72
2022/08/05 08:26:09;;;;;;;111.75;104.57;;;;;;;;;;6152335;23;20004;-72
2022/08/05 08:28:35;;;;;;;111.25;104.28;;;;;;;;;;6151218;23;20350;-72
2022/08/05 08:31:01;;;;;;;106.45;99.72;;;;;;;;;;6151563;23;20007;-72
2022/08/05 08:33:27;;;;;;;105.78;98.95;;;;;;;;;;6151651;23;20066;-72
2022/08/05 08:35:53;;;;;;;105.85;98.93;;;;;;;;;;6149916;23;19998;-73
2022/08/05 08:38:19;;;;;;;103.05;96.13;;;;;;;;;;6152411;23;20005;-72
2022/08/05 08:40:45;;;;;;;105.32;98.53;;;;;;;;;;6151351;23;20001;-72
2022/08/05 08:43:12;;;;;;;107.90;100.97;;;;;;;;;;6151059;23;19998;-72
2022/08/05 08:45:38;;;;;;;104.63;97.80;;;;;;;;;;6151539;23;20001;-72
2022/08/05 08:48:05;;;;;;;107.28;100.43;;;;;;;;;;6152966;23;20013;-72
2022/08/05 08:50:32;;;;;;;105.47;98.90;;;;;;;;;;6156345;23;20001;-74
2022/08/05 08:53:04;;;;;;;106.82;100.07;;;;;;;;;;6156293;23;20006;-72
2022/08/05 08:55:30;;;;;;;104.38;97.70;;;;;;;;;;6156163;23;20017;-72
2022/08/05 08:57:57;;;;;;;105.72;99.05;;;;;;;;;;6154213;23;20386;-72
2022/08/05 09:00:24;;;;;;;100.18;93.78;;;;;;;;;;6156308;23;20010;-73
2022/08/05 09:02:50;;;;;;;100.70;93.65;;;;;;;;;;6154953;23;20076;-74
2022/08/05 09:05:16;;;;;;;102.13;95.47;;;;;;;;;;6155737;23;20013;-73
2022/08/05 09:07:42;;;;;;;97.22;90.82;;;;;;;;;;6156144;23;20020;-74
2022/08/05 09:10:08;;;;;;;101.32;94.72;;;;;;;;;;6156613;23;20419;-73
2022/08/05 09:12:35;;;;;;;99.53;93.07;;;;;;;;;;6156543;23;20072;-74
2022/08/05 09:15:02;;;;;;;99.32;93.00;;;;;;;;;;6155409;23;20006;-74
2022/08/05 09:17:28;;;;;;;91.90;85.93;;;;;;;;;;6155760;23;20021;-73
2022/08/05 09:19:54;;;;;;;100.80;94.32;;;;;;;;;;6155986;23;20052;-73
2022/08/05 09:22:20;;;;;;;99.65;93.32;;;;;;;;;;6155115;23;20326;-73
2022/08/05 09:25:02;;;;;;;97.07;90.82;;;;;;;;;;6165843;23;20006;-80
2022/08/05 09:27:36;;;;;;;99.22;93.03;;;;;;;;;;6173015;23;20037;-82
2022/08/05 09:30:03;;;;;;;95.82;89.57;;;;;;;;;;6181168;23;19990;-82
2022/08/05 09:32:36;;;;;;;93.13;87.20;;;;;;;;;;6180476;23;20014;-82
2022/08/05 09:35:10;;;;;;;88.68;82.82;;;;;;;;;;6179540;23;20061;-82
2022/08/05 09:37:36;;;;;;;85.05;79.70;;;;;;;;;;6180623;23;20021;-82
2022/08/05 09:40:02;;;;;;;73.38;68.70;;;;;;;;;;6181321;23;20017;-82
2022/08/05 09:42:38;;;;;;;77.47;72.43;;;;;;;;;;6183098;23;20001;-82
2022/08/05 09:45:08;;;;;;;82.63;77.18;;;;;;;;;;6163232;23;20087;-78
2022/08/05 09:47:34;;;;;;;88.70;82.97;;;;;;;;;;6157274;23;20013;-78
2022/08/05 09:50:00;;;;;;;90.60;84.75;;;;;;;;;;6157053;23;20334;-78
2022/08/05 09:52:30;;;;;;;95.03;88.97;;;;;;;;;;6156756;23;20012;-78
2022/08/05 09:54:58;;;;;;;107.38;100.35;;;;;;;;;;6156447;23;19997;-78
2022/08/05 09:57:30;;;;;;;106.93;99.85;;;;;;;;;;6156716;23;20067;-78
2022/08/05 09:59:57;;;;;;;115.65;108.20;;;;;;;;;;6155918;23;20057;-78
2022/08/05 14:00:20;;;;;;;24.17;22.52;;;;;;;;;;6156129;23;20112;-79
2022/08/05 14:02:46;;;;;;;24.05;22.65;;;;;;;;;;6155791;23;20025;-79
2022/08/05 14:05:14;;;;;;;22.83;21.33;;;;;;;;;;6154823;23;20006;-76
2022/08/05 14:07:42;;;;;;;23.38;22.08;;;;;;;;;;6156181;23;20036;-77
2022/08/05 14:10:13;;;;;;;20.92;19.65;;;;;;;;;;6185797;23;20004;-74
2022/08/05 14:12:39;;;;;;;19.92;18.83;;;;;;;;;;6185388;23;20004;-77
2022/08/05 14:15:06;;;;;;;19.30;18.20;;;;;;;;;;6185398;23;20001;-75
2022/08/05 14:17:32;;;;;;;18.13;17.00;;;;;;;;;;6183439;23;20005;-76
2022/08/05 14:19:58;;;;;;;17.85;16.85;;;;;;;;;;6185872;23;20001;-77
2022/08/05 14:22:25;;;;;;;17.92;16.92;;;;;;;;;;6185769;23;20326;-76
2022/08/05 14:24:51;;;;;;;18.20;17.10;;;;;;;;;;6186293;23;20001;-76
2022/08/05 14:27:17;;;;;;;20.00;18.63;;;;;;;;;;6186278;23;20009;-76
2022/08/05 14:29:43;;;;;;;18.33;17.23;;;;;;;;;;6186842;23;20429;-74
2022/08/05 14:32:09;;;;;;;17.30;16.30;;;;;;;;;;6185960;23;20068;-76
2022/08/05 14:34:35;;;;;;;17.33;16.13;;;;;;;;;;6186211;23;19997;-76
2022/08/05 14:37:01;;;;;;;17.35;16.35;;;;;;;;;;6185413;23;20069;-75
2022/08/05 14:39:27;;;;;;;16.98;15.88;;;;;;;;;;6185716;23;20427;-76
2022/08/05 14:41:54;;;;;;;17.10;16.10;;;;;;;;;;6183359;23;19997;-75
2022/08/05 14:44:20;;;;;;;18.15;16.50;;;;;;;;;;6187295;23;20032;-77
2022/08/05 14:46:46;;;;;;;17.60;16.50;;;;;;;;;;6185392;23;20322;-76
2022/08/05 14:49:12;;;;;;;16.60;15.50;;;;;;;;;;6186972;23;20001;-75
2022/08/05 14:51:39;;;;;;;17.00;16.00;;;;;;;;;;6186646;23;20052;-75
2022/08/05 14:54:06;;;;;;;15.52;14.52;;;;;;;;;;6209374;23;20344;-76
2022/08/05 14:56:33;;;;;;;15.80;14.80;;;;;;;;;;6187750;23;20027;-75
2022/08/05 14:59:00;;;;;;;16.15;15.05;;;;;;;;;;6185956;23;20457;-75
2022/08/05 15:01:26;;;;;;;16.50;15.20;;;;;;;;;;6186604;23;20012;-77
2022/08/05 15:03:52;;;;;;;15.80;14.90;;;;;;;;;;6184225;23;20005;-76
2022/08/05 15:06:18;;;;;;;15.93;14.73;;;;;;;;;;6184882;23;20047;-76
2022/08/05 15:08:45;;;;;;;15.38;14.57;;;;;;;;;;6184897;23;20005;-76
2022/08/05 15:11:11;;;;;;;16.98;15.10;;;;;;;;;;6183812;23;20032;-74
2022/08/05 15:13:37;;;;;;;15.98;15.00;;;;;;;;;;6185042;23;20020;-75
2022/08/05 15:16:03;;;;;;;15.95;15.02;;;;;;;;;;6185008;23;20017;-76
2022/08/05 15:18:29;;;;;;;15.88;14.77;;;;;;;;;;6184823;23;19997;-75
2022/08/05 15:20:55;;;;;;;16.10;15.00;;;;;;;;;;6186133;23;20008;-75
2022/08/05 15:23:21;;;;;;;15.75;14.85;;;;;;;;;;6187715;23;20012;-77
2022/08/05 15:25:47;;;;;;;16.20;15.20;;;;;;;;;;6187160;23;20005;-75
2022/08/05 15:28:13;;;;;;;16.25;15.15;;;;;;;;;;6187148;23;20020;-75
2022/08/05 15:30:39;;;;;;;15.63;14.68;;;;;;;;;;6187103;23;20012;-74
2022/08/05 15:33:05;;;;;;;16.48;15.38;;;;;;;;;;6186544;23;20005;-74
2022/08/05 15:35:32;;;;;;;15.85;14.95;;;;;;;;;;6187049;23;20039;-72
2022/08/05 15:37:58;;;;;;;16.38;15.38;;;;;;;;;;6186480;23;20001;-74
2022/08/05 15:40:24;;;;;;;15.25;14.45;;;;;;;;;;6187007;23;20028;-75
2022/08/05 15:42:51;;;;;;;15.68;14.77;;;;;;;;;;6185178;23;20038;-75
2022/08/05 15:45:17;;;;;;;15.38;14.45;;;;;;;;;;6186927;23;20001;-77
2022/08/05 15:47:43;;;;;;;16.30;15.40;;;;;;;;;;6160338;23;20088;-73
2022/08/05 15:50:10;;;;;;;15.60;14.70;;;;;;;;;;6172751;23;20015;-74
2022/08/05 15:52:36;;;;;;;15.15;14.10;;;;;;;;;;6179966;23;20080;-73
2022/08/05 15:55:06;;;;;;;15.18;14.30;;;;;;;;;;6181660;23;20141;-76
2022/08/05 15:57:32;;;;;;;15.32;14.43;;;;;;;;;;6179332;23;20020;-75
2022/08/05 15:59:58;;;;;;;15.93;14.93;;;;;;;;;;6181467;23;20054;-74
2022/08/05 16:02:24;;;;;;;15.32;14.38;;;;;;;;;;6182192;23;20001;-73
2022/08/05 16:04:51;;;;;;;15.80;14.60;;;;;;;;;;6180509;23;20055;-74
2022/08/05 16:07:20;;;;;;;15.75;14.75;;;;;;;;;;6181051;23;20009;-74
2022/08/05 16:09:46;;;;;;;15.60;14.50;;;;;;;;;;6182251;23;20009;-75
2022/08/05 16:12:12;;;;;;;16.10;15.20;;;;;;;;;;6181100;23;20001;-73
2022/08/05 16:14:38;;;;;;;15.38;14.38;;;;;;;;;;6181418;23;20479;-74
2022/08/05 16:17:04;;;;;;;15.70;14.75;;;;;;;;;;6181980;23;20009;-77
2022/08/05 16:19:30;;;;;;;15.73;14.82;;;;;;;;;;6178888;23;20012;-74
2022/08/05 16:21:56;;;;;;;15.30;14.43;;;;;;;;;;6181426;23;20004;-74
2022/08/05 16:24:22;;;;;;;16.23;15.13;;;;;;;;;;6181928;23;20005;-75
2022/08/05 16:26:56;;;;;;;15.95;15.05;;;;;;;;;;6180998;23;20020;-73
2022/08/05 16:29:22;;;;;;;15.32;14.43;;;;;;;;;;6178779;23;20009;-75
2022/08/05 16:31:48;;;;;;;16.10;15.10;;;;;;;;;;6182126;23;20414;-74
2022/08/05 16:34:15;;;;;;;15.65;14.77;;;;;;;;;;6181280;23;20001;-74
2022/08/05 16:36:41;;;;;;;15.75;14.80;;;;;;;;;;6181134;23;20374;-74
2022/08/05 16:39:08;;;;;;;16.05;15.02;;;;;;;;;;6183946;23;20008;-74
2022/08/05 16:41:36;;;;;;;15.73;14.70;;;;;;;;;;6186180;23;20088;-73
2022/08/05 16:44:02;;;;;;;15.32;14.43;;;;;;;;;;6185645;23;20441;-75
2022/08/05 16:46:28;;;;;;;16.13;15.13;;;;;;;;;;6185747;23;20001;-74
2022/08/05 16:48:54;;;;;;;15.75;14.65;;;;;;;;;;6186244;23;20008;-75
2022/08/05 16:51:20;;;;;;;15.93;15.02;;;;;;;;;;6184795;23;19997;-74
2022/08/05 16:53:46;;;;;;;16.00;15.10;;;;;;;;;;6185918;23;20005;-76
2022/08/05 16:56:12;;;;;;;16.17;15.05;;;;;;;;;;6184481;23;20001;-73
2022/08/05 16:58:39;;;;;;;15.48;14.48;;;;;;;;;;6185636;23;20016;-73
2022/08/05 17:01:05;;;;;;;16.63;15.63;;;;;;;;;;6186375;23;20002;-76
2022/08/05 17:03:31;;;;;;;16.38;15.38;;;;;;;;;;6185360;23;19997;-74
2022/08/05 17:05:59;;;;;;;15.52;14.52;;;;;;;;;;6185887;23;20001;-74
2022/08/05 17:08:25;;;;;;;16.95;15.85;;;;;;;;;;6184709;23;20016;-74
2022/08/05 17:10:51;;;;;;;16.48;15.43;;;;;;;;;;6184759;23;20055;-75
2022/08/05 17:13:18;;;;;;;16.48;15.23;;;;;;;;;;6184108;23;20028;-74
2022/08/05 17:15:44;;;;;;;16.20;15.30;;;;;;;;;;6184830;23;20040;-74
2022/08/05 17:18:10;;;;;;;16.23;15.07;;;;;;;;;;6183928;23;20005;-74
2022/08/05 17:20:36;;;;;;;16.67;15.68;;;;;;;;;;6184312;23;20013;-73
2022/08/05 17:23:02;;;;;;;17.13;15.82;;;;;;;;;;6182920;23;20423;-74
2022/08/05 17:25:28;;;;;;;16.00;15.00;;;;;;;;;;6185092;23;19997;-74
2022/08/05 17:27:54;;;;;;;16.45;15.45;;;;;;;;;;6185607;23;20441;-74
2022/08/05 17:30:20;;;;;;;16.48;15.48;;;;;;;;;;6186020;23;20027;-73
2022/08/05 17:32:46;;;;;;;17.05;16.00;;;;;;;;;;6184557;23;20005;-73
2022/08/05 17:35:13;;;;;;;17.00;15.90;;;;;;;;;;6185947;23;20001;-73
2022/08/05 17:37:39;;;;;;;17.33;16.10;;;;;;;;;;6185850;23;20099;-74
2022/08/05 17:40:06;;;;;;;16.30;15.32;;;;;;;;;;6185955;23;20005;-74
2022/08/05 17:42:32;;;;;;;16.80;15.70;;;;;;;;;;6185541;23;20001;-73
2022/08/05 17:44:59;;;;;;;16.90;15.82;;;;;;;;;;6185321;23;20005;-72
2022/08/05 17:47:25;;;;;;;18.08;16.80;;;;;;;;;;6186034;23;20051;-75
2022/08/05 17:49:51;;;;;;;17.77;16.65;;;;;;;;;;6185504;23;19998;-75
2022/08/05 17:52:17;;;;;;;18.67;17.48;;;;;;;;;;6185767;23;20232;-73
2022/08/05 17:54:43;;;;;;;19.15;17.95;;;;;;;;;;6185464;23;20001;-74
2022/08/05 17:57:09;;;;;;;19.65;18.13;;;;;;;;;;6185739;23;20007;-74
2022/08/05 17:59:35;;;;;;;19.48;17.92;;;;;;;;;;6185658;23;20016;-73
2022/08/05 18:02:01;;;;;;;18.77;17.52;;;;;;;;;;6185248;23;20001;-75
2022/08/05 18:04:28;;;;;;;18.38;17.08;;;;;;;;;;6185572;23;20040;-74
2022/08/05 18:06:54;;;;;;;18.63;17.30;;;;;;;;;;6183955;23;20092;-73